Pagina principale
METAR-TAF:

METAR-TAF

Aeroporti :

Aeroporto di Ajaccio Napoleone Bonaparte

Ajaccio, Francia

latitudine: 41-55N, longitudine: 008-48E, altezza: 6 m

Osservazione

Il bollettino è stato emesso 27 minuti fa, alle 20:00 UTC
Vento 5 kt da nord-est
Temperature 21°C
Umidità 73%
Pressione 1017 hPa
Visibilità 10 km o più
nessuna nube inferiore a 1500 m e nessun cumulonembo

METAR: LFKJ 162000Z AUTO 05005KT CAVOK 21/16 Q1017 NOSIG

Ora: 22:27 (20:27 UTC)

Previsione

Il bollettino è stato emesso 6 ore e 27 minuti fa, alle 14:00 UTC
Previsione valida dal 16 alle 15 UTC al 17 alle 15 UTC
Vento 10 kt da sud/sud-ovest
Visibilità 10 km o più
nessuna nube inferiore a 1500 m e nessun cumulonembo
Evoluzione graduale
dal 16 alle 17 UTC al 16 alle 19 UTC
Vento 5 kt da nord-est

TAF: LFKJ 161400Z 1615/1715 21010KT CAVOK BECMG 1617/1619 05005KT

Osservazioni e previsioni meteorologiche di più di 4000 aeroporti (messaggi METAR e TAF).

Le stazioni disponibili sono rappresentate dai dischi gialli e rossi sulla carta.

Puntare il mouse per vedere il nome della stazione.

Clicca sopra per visualizzare le osservazioni e previsioni meteorologiche.

Per cambiare la mappa : fare clic sui pulsanti verdi con una croce nera per ingrandire, il pulsante verde con un trattino per diminuire, o sulla freccia verde per le mappe adiacenti.


METAR-TAF: